createdAt,value
2019-01-05T00:00:53.462Z,509.90
2019-01-05T00:01:53.429Z,411.70
2019-01-05T00:02:53.445Z,490.10
2019-01-05T00:03:53.410Z,374.20
2019-01-05T00:04:53.399Z,356.50
2019-01-05T00:05:53.387Z,373.80
2019-01-05T00:06:53.401Z,529.60
2019-01-05T00:07:53.367Z,406.90
2019-01-05T00:08:53.372Z,443.40
2019-01-05T00:09:53.360Z,502.50
2019-01-05T00:10:53.349Z,506.20
2019-01-05T00:11:53.359Z,327.50
2019-01-05T00:12:53.332Z,433.30
2019-01-05T00:13:53.302Z,486.70
2019-01-05T00:14:53.292Z,414.30
2019-01-05T00:15:53.281Z,505.10
2019-01-05T00:16:53.271Z,510.80
2019-01-05T00:17:53.272Z,520.70
2019-01-05T00:18:53.268Z,326.60
2019-01-05T00:19:53.240Z,274.30
2019-01-05T00:20:53.228Z,378.80
2019-01-05T00:21:53.218Z,268.90
2019-01-05T00:22:53.206Z,298.70
2019-01-05T00:23:53.212Z,362.40
2019-01-05T00:24:53.211Z,406.00
2019-01-05T00:25:53.228Z,340.00
2019-01-05T00:26:53.164Z,516.50
2019-01-05T00:27:53.158Z,275.20
2019-01-05T00:28:53.160Z,403.00
2019-01-05T00:29:53.149Z,309.00
2019-01-05T00:30:53.141Z,354.00
2019-01-05T00:31:53.112Z,412.00
2019-01-05T00:32:53.113Z,492.10
2019-01-05T00:33:53.128Z,419.10
2019-01-05T00:34:53.082Z,291.60
2019-01-05T00:35:53.090Z,259.40
2019-01-05T00:36:53.091Z,294.00
2019-01-05T00:37:53.050Z,250.70
2019-01-05T00:38:53.039Z,256.80
2019-01-05T00:39:53.099Z,288.60
2019-01-05T00:40:53.019Z,295.50
2019-01-05T00:41:53.028Z,231.90
2019-01-05T00:42:53.018Z,218.80
2019-01-05T00:43:52.988Z,230.20
2019-01-05T00:44:52.978Z,244.10
2019-01-05T00:45:52.966Z,277.60
2019-01-05T00:46:53.003Z,293.70
2019-01-05T00:47:52.958Z,233.00
2019-01-05T00:48:52.951Z,234.10
2019-01-05T00:49:52.930Z,201.80
2019-01-05T00:50:52.922Z,213.60
2019-01-05T00:51:52.904Z,209.90
2019-01-05T00:52:52.892Z,209.90
2019-01-05T00:53:52.901Z,191.90
2019-01-05T00:54:52.886Z,154.80
2019-01-05T00:55:52.879Z,161.10
2019-01-05T00:56:52.858Z,205.20
2019-01-05T00:57:52.848Z,192.80
2019-01-05T00:58:52.838Z,224.70
2019-01-05T00:59:52.847Z,222.50
2019-01-05T01:00:52.824Z,224.30
2019-01-05T01:01:52.809Z,229.80
2019-01-05T01:02:52.791Z,239.20
2019-01-05T01:03:52.889Z,227.80
2019-01-05T01:04:52.769Z,229.50
2019-01-05T01:05:52.792Z,252.40
2019-01-05T01:06:52.749Z,233.60
2019-01-05T01:07:52.952Z,203.30
2019-01-05T01:08:52.727Z,175.80
2019-01-05T01:09:52.715Z,179.30
2019-01-05T01:10:52.719Z,227.60
2019-01-05T01:11:52.722Z,221.40
2019-01-05T01:12:52.687Z,226.90
2019-01-05T01:13:52.679Z,293.70
2019-01-05T01:14:52.671Z,288.70
2019-01-05T01:15:52.674Z,237.10
2019-01-05T01:16:52.653Z,233.90
2019-01-05T01:17:52.666Z,248.90
2019-01-05T01:18:52.623Z,174.10
2019-01-05T01:19:52.612Z,159.00
2019-01-05T01:20:52.615Z,210.40
2019-01-05T01:21:52.595Z,219.90
2019-01-05T01:22:52.585Z,171.10
2019-01-05T01:23:52.612Z,185.40
2019-01-05T01:24:52.563Z,198.90
2019-01-05T01:25:52.568Z,175.50
2019-01-05T01:26:52.552Z,156.30
2019-01-05T01:27:52.538Z,143.20
2019-01-05T01:28:52.740Z,124.90
2019-01-05T01:29:52.519Z,138.00
2019-01-05T01:30:52.512Z,161.90
2019-01-05T01:31:52.489Z,174.00
2019-01-05T01:32:52.500Z,144.00
2019-01-05T01:33:52.515Z,191.10
2019-01-05T01:34:52.460Z,167.90
2019-01-05T01:35:52.499Z,181.80
2019-01-05T01:36:52.435Z,133.30
2019-01-05T01:37:52.426Z,111.40
2019-01-05T01:38:52.416Z,137.50
2019-01-05T01:39:52.411Z,141.30
2019-01-05T01:40:52.427Z,186.00
2019-01-05T01:41:52.434Z,87.50
2019-01-05T01:42:52.374Z,91.10
2019-01-05T01:43:52.361Z,85.50
2019-01-05T01:44:52.354Z,84.60
2019-01-05T01:45:52.350Z,119.80
2019-01-05T01:46:52.368Z,107.30
2019-01-05T01:47:52.369Z,105.00
2019-01-05T01:48:52.307Z,97.90
2019-01-05T01:49:52.301Z,143.30
2019-01-05T01:50:52.292Z,118.70
2019-01-05T01:51:52.282Z,129.50
2019-01-05T01:52:52.285Z,116.50
2019-01-05T01:53:52.312Z,124.20
2019-01-05T01:54:52.248Z,118.20
2019-01-05T01:55:52.234Z,114.40
2019-01-05T01:56:52.241Z,85.60
2019-01-05T01:57:52.219Z,92.70
2019-01-05T01:58:52.204Z,114.20
2019-01-05T01:59:52.235Z,80.40
2019-01-05T02:00:52.187Z,62.00
2019-01-05T02:01:52.198Z,68.30
2019-01-05T02:02:52.187Z,70.30
2019-01-05T02:03:52.157Z,101.90
2019-01-05T02:04:52.147Z,88.90
2019-01-05T02:05:52.170Z,91.40
2019-01-05T02:06:52.136Z,73.30
2019-01-05T02:07:52.109Z,87.90
2019-01-05T02:08:52.105Z,74.30
2019-01-05T02:09:52.124Z,53.20
2019-01-05T02:10:52.078Z,61.10
2019-01-05T02:11:52.133Z,60.70
2019-01-05T02:12:52.061Z,55.70
2019-01-05T02:13:52.056Z,84.90
2019-01-05T02:14:52.036Z,64.50
2019-01-05T02:15:52.052Z,67.20
2019-01-05T02:16:52.022Z,94.20
2019-01-05T02:17:52.018Z,73.20
2019-01-05T02:18:52.044Z,50.40
2019-01-05T02:19:51.981Z,62.50
2019-01-05T02:20:52.030Z,69.30
2019-01-05T02:21:51.970Z,91.00
2019-01-05T02:22:51.958Z,89.50
2019-01-05T02:23:51.958Z,99.20
2019-01-05T02:24:51.946Z,72.10
2019-01-05T02:25:51.918Z,63.30
2019-01-05T02:26:51.929Z,70.60
2019-01-05T02:27:51.903Z,70.90
2019-01-05T02:28:51.885Z,54.60
2019-01-05T02:29:51.874Z,80.30
2019-01-05T02:30:51.895Z,84.40
2019-01-05T02:31:52.206Z,93.90
2019-01-05T02:32:51.845Z,73.00
2019-01-05T02:33:51.836Z,75.00
2019-01-05T02:34:51.825Z,81.00
2019-01-05T02:35:51.826Z,64.10
2019-01-05T02:36:51.843Z,51.40
2019-01-05T02:37:51.797Z,48.00
2019-01-05T02:38:51.786Z,37.40
2019-01-05T02:39:51.804Z,53.10
2019-01-05T02:40:51.766Z,64.20
2019-01-05T02:41:51.768Z,54.20
2019-01-05T02:42:51.767Z,47.80
2019-01-05T02:43:51.727Z,85.50
2019-01-05T02:44:51.733Z,59.70
2019-01-05T02:45:51.707Z,67.30
2019-01-05T02:46:51.718Z,62.40
2019-01-05T02:47:51.719Z,52.40
2019-01-05T02:48:51.686Z,53.80
2019-01-05T02:49:51.666Z,66.00
2019-01-05T02:50:51.656Z,71.40
2019-01-05T02:51:51.660Z,52.00
2019-01-05T02:52:51.638Z,47.20
2019-01-05T02:53:51.647Z,60.10
2019-01-05T02:54:51.615Z,70.70
2019-01-05T02:55:51.630Z,41.80
2019-01-05T02:56:51.591Z,40.20
2019-01-05T02:57:51.593Z,38.90
2019-01-05T02:58:51.565Z,61.90
2019-01-05T02:59:51.587Z,59.50
2019-01-05T03:00:51.564Z,79.90
2019-01-05T03:01:51.550Z,67.90
2019-01-05T03:02:51.523Z,52.10
2019-01-05T03:03:51.542Z,57.00
2019-01-05T03:04:51.508Z,63.40
2019-01-05T03:05:51.523Z,63.60
2019-01-05T03:06:51.488Z,63.50
2019-01-05T03:07:51.485Z,68.90
2019-01-05T03:08:51.462Z,52.70
2019-01-05T03:09:51.451Z,65.10
2019-01-05T03:10:51.436Z,53.80
2019-01-05T03:11:51.451Z,61.00
2019-01-05T03:12:51.438Z,70.50
2019-01-05T03:13:51.625Z,80.40
2019-01-05T03:14:51.394Z,70.60
2019-01-05T03:15:51.393Z,58.90
2019-01-05T03:16:51.373Z,58.50
2019-01-05T03:17:51.404Z,66.70
2019-01-05T03:18:51.380Z,46.50
2019-01-05T03:19:51.345Z,83.30
2019-01-05T03:20:51.369Z,55.10
2019-01-05T03:21:51.336Z,64.80
2019-01-05T03:22:51.312Z,77.30
2019-01-05T03:23:51.324Z,69.20
2019-01-05T03:24:51.299Z,78.30
2019-01-05T03:25:51.276Z,80.30
2019-01-05T03:26:51.278Z,85.50
2019-01-05T03:27:51.266Z,70.20
2019-01-05T03:28:51.242Z,68.00
2019-01-05T03:29:51.307Z,68.20
2019-01-05T03:30:51.236Z,51.50
2019-01-05T03:31:51.255Z,70.30
2019-01-05T03:32:51.220Z,60.50
2019-01-05T03:33:51.189Z,65.50
2019-01-05T03:34:51.179Z,76.60
2019-01-05T03:35:51.197Z,99.80
2019-01-05T03:36:51.164Z,44.40
2019-01-05T03:37:51.143Z,42.80
2019-01-05T03:38:51.148Z,50.80
2019-01-05T03:39:51.120Z,68.50
2019-01-05T03:40:51.112Z,62.10
2019-01-05T03:41:51.131Z,51.30
2019-01-05T03:42:51.091Z,58.40
2019-01-05T03:43:51.077Z,64.10
2019-01-05T03:44:51.121Z,65.80
2019-01-05T03:45:51.059Z,41.50
2019-01-05T03:46:51.048Z,50.30
2019-01-05T03:47:51.063Z,48.90
2019-01-05T03:48:51.030Z,57.70
2019-01-05T03:49:51.018Z,48.50
2019-01-05T03:50:51.022Z,46.80
2019-01-05T03:51:50.989Z,59.20
2019-01-05T03:52:50.982Z,52.40
2019-01-05T03:53:50.988Z,48.10
2019-01-05T03:54:50.961Z,45.80
2019-01-05T03:55:51.175Z,52.20
2019-01-05T03:56:50.952Z,46.50
2019-01-05T03:57:50.943Z,50.30
2019-01-05T03:58:50.914Z,61.60
2019-01-05T03:59:50.943Z,66.50
2019-01-05T04:00:50.893Z,74.00
2019-01-05T04:01:50.885Z,53.40
2019-01-05T04:02:50.892Z,41.50
2019-01-05T04:03:50.868Z,45.60
2019-01-05T04:04:50.859Z,69.30
2019-01-05T04:05:50.881Z,70.70
2019-01-05T04:06:50.829Z,43.90
2019-01-05T04:07:50.820Z,55.70
2019-01-05T04:08:50.825Z,61.60
2019-01-05T04:09:50.798Z,74.90
2019-01-05T04:10:50.789Z,57.90
2019-01-05T04:11:50.774Z,76.40
2019-01-05T04:12:50.785Z,86.90
2019-01-05T04:13:50.771Z,79.20
2019-01-05T04:14:50.746Z,53.40
2019-01-05T04:15:50.741Z,64.50
2019-01-05T04:16:50.938Z,54.60
2019-01-05T04:17:50.708Z,70.50
2019-01-05T04:18:50.734Z,62.90
2019-01-05T04:19:50.706Z,58.60
2019-01-05T04:20:50.677Z,58.80
2019-01-05T04:21:50.673Z,65.30
2019-01-05T04:22:50.653Z,63.00
2019-01-05T04:23:50.647Z,64.30
2019-01-05T04:24:50.655Z,49.80
2019-01-05T04:25:50.639Z,71.10
2019-01-05T04:26:50.611Z,70.10
2019-01-05T04:27:50.602Z,43.20
2019-01-05T04:28:50.588Z,41.90
2019-01-05T04:29:50.586Z,44.20
2019-01-05T04:30:50.600Z,87.00
2019-01-05T04:31:50.584Z,58.40
2019-01-05T04:32:50.547Z,46.50
2019-01-05T04:33:50.556Z,54.10
2019-01-05T04:34:50.526Z,45.10
2019-01-05T04:35:50.515Z,34.50
2019-01-05T04:36:50.543Z,33.30
2019-01-05T04:37:50.559Z,55.40
2019-01-05T04:38:50.499Z,55.40
2019-01-05T04:39:50.472Z,61.50
2019-01-05T04:40:50.457Z,41.30
2019-01-05T04:41:50.447Z,45.10
2019-01-05T04:42:50.480Z,36.50
2019-01-05T04:43:50.448Z,42.30
2019-01-05T04:44:50.413Z,39.20
2019-01-05T04:45:50.401Z,50.20
2019-01-05T04:46:50.410Z,50.00
2019-01-05T04:47:50.390Z,34.60
2019-01-05T04:48:50.412Z,42.90
2019-01-05T04:49:50.357Z,67.90
2019-01-05T04:50:50.347Z,56.40
2019-01-05T04:51:50.359Z,32.20
2019-01-05T04:52:50.327Z,29.30
2019-01-05T04:53:50.316Z,37.30
2019-01-05T04:54:50.366Z,46.60
2019-01-05T04:55:50.297Z,44.90
2019-01-05T04:56:50.306Z,33.10
2019-01-05T04:57:50.277Z,39.60
2019-01-05T04:58:50.469Z,34.50
2019-01-05T04:59:50.248Z,46.90
2019-01-05T05:00:50.267Z,31.20
2019-01-05T05:01:50.255Z,40.00
2019-01-05T05:02:50.223Z,47.10
2019-01-05T05:03:50.209Z,43.00
2019-01-05T05:04:50.201Z,36.50
2019-01-05T05:05:50.189Z,43.00
2019-01-05T05:06:50.225Z,44.60
2019-01-05T05:07:50.170Z,45.10
2019-01-05T05:08:50.151Z,30.10
2019-01-05T05:09:50.146Z,42.50
2019-01-05T05:10:50.136Z,35.80
2019-01-05T05:11:50.118Z,31.40
2019-01-05T05:12:50.171Z,30.10
2019-01-05T05:13:50.099Z,40.20
2019-01-05T05:14:50.089Z,30.00
2019-01-05T05:15:50.079Z,44.30
2019-01-05T05:16:50.076Z,40.00
2019-01-05T05:17:50.068Z,33.30
2019-01-05T05:18:50.100Z,21.70
2019-01-05T05:19:50.211Z,23.00
2019-01-05T05:20:50.028Z,30.10
2019-01-05T05:21:50.011Z,29.30
2019-01-05T05:22:50.002Z,34.60
2019-01-05T05:23:49.993Z,19.70
2019-01-05T05:24:50.024Z,29.60
2019-01-05T05:25:49.970Z,26.40
2019-01-05T05:26:49.958Z,27.80
2019-01-05T05:27:49.979Z,17.60
2019-01-05T05:28:49.945Z,21.30
2019-01-05T05:29:49.931Z,23.10
2019-01-05T05:30:49.986Z,22.90
2019-01-05T05:31:49.905Z,35.40
2019-01-05T05:32:49.910Z,25.90
2019-01-05T05:33:49.887Z,29.20
2019-01-05T05:34:49.877Z,28.10
2019-01-05T05:35:50.929Z,24.30
2019-01-05T05:36:49.879Z,33.30
2019-01-05T05:37:49.861Z,19.80
2019-01-05T05:38:49.830Z,21.50
2019-01-05T05:39:49.819Z,21.80
2019-01-05T05:40:49.830Z,24.00
2019-01-05T05:41:50.047Z,36.30
2019-01-05T05:42:49.794Z,17.50
2019-01-05T05:43:49.793Z,26.00
2019-01-05T05:44:49.771Z,26.70
2019-01-05T05:45:49.755Z,18.50
2019-01-05T05:46:49.747Z,18.60
2019-01-05T05:47:49.798Z,18.10
2019-01-05T05:48:49.730Z,19.70
2019-01-05T05:49:49.714Z,15.50
2019-01-05T05:50:49.703Z,17.30
2019-01-05T05:51:49.692Z,19.80
2019-01-05T05:52:49.699Z,22.60
2019-01-05T05:53:49.775Z,24.00
2019-01-05T05:54:49.664Z,19.00
2019-01-05T05:55:49.657Z,25.00
2019-01-05T05:56:49.637Z,26.20
2019-01-05T05:57:49.640Z,20.80
2019-01-05T05:58:49.624Z,25.60
2019-01-05T05:59:49.624Z,26.10
2019-01-05T06:00:49.597Z,25.50
2019-01-05T06:01:49.588Z,21.20
2019-01-05T06:02:49.643Z,19.00
2019-01-05T06:03:49.563Z,22.90
2019-01-05T06:04:49.556Z,22.70
2019-01-05T06:05:49.569Z,23.60
2019-01-05T06:06:49.538Z,24.60
2019-01-05T06:07:49.523Z,28.00
2019-01-05T06:08:49.543Z,26.00
2019-01-05T06:09:49.498Z,29.20
2019-01-05T06:10:49.487Z,30.00
2019-01-05T06:11:49.519Z,34.60
2019-01-05T06:12:49.469Z,37.00
2019-01-05T06:13:49.457Z,32.00
2019-01-05T06:14:49.461Z,50.50
2019-01-05T06:15:49.435Z,41.60
2019-01-05T06:16:49.429Z,32.50
2019-01-05T06:17:49.434Z,38.70
2019-01-05T06:18:49.423Z,53.10
2019-01-05T06:19:49.395Z,33.40
2019-01-05T06:20:49.386Z,42.70
2019-01-05T06:21:49.371Z,54.80
2019-01-05T06:22:49.363Z,36.40
2019-01-05T06:23:49.460Z,36.00
2019-01-05T06:24:49.344Z,29.60
2019-01-05T06:25:49.331Z,24.90
2019-01-05T06:26:49.324Z,20.30
2019-01-05T06:27:49.321Z,38.90
2019-01-05T06:28:49.311Z,26.30
2019-01-05T06:29:49.331Z,35.50
2019-01-05T06:30:49.359Z,30.80
2019-01-05T06:31:49.263Z,23.20
2019-01-05T06:32:49.264Z,31.70
2019-01-05T06:33:49.314Z,31.90
2019-01-05T06:34:49.247Z,26.60
2019-01-05T06:35:49.255Z,34.20
2019-01-05T06:36:49.211Z,31.40
2019-01-05T06:37:49.202Z,26.90
2019-01-05T06:38:49.221Z,21.30
2019-01-05T06:39:49.180Z,26.40
2019-01-05T06:40:49.173Z,33.80
2019-01-05T06:41:49.250Z,23.70
2019-01-05T06:42:49.211Z,26.60
2019-01-05T06:43:49.210Z,29.10
2019-01-05T06:44:49.127Z,21.00
2019-01-05T06:45:49.186Z,24.40
2019-01-05T06:46:49.261Z,25.30
2019-01-05T06:47:49.220Z,26.80
2019-01-05T06:48:49.112Z,26.40
2019-01-05T06:49:49.109Z,12.60
2019-01-05T06:50:49.105Z,22.00
2019-01-05T06:51:49.071Z,19.20
2019-01-05T06:52:49.107Z,21.40
2019-01-05T06:53:49.176Z,19.20
2019-01-05T06:54:49.019Z,24.70
2019-01-05T06:55:49.009Z,18.30
2019-01-05T06:56:49.079Z,20.50
2019-01-05T06:57:49.055Z,18.80
2019-01-05T06:58:49.052Z,20.00
2019-01-05T06:59:49.148Z,22.20
2019-01-05T07:00:48.978Z,17.00
2019-01-05T07:01:49.116Z,16.50
2019-01-05T07:02:48.952Z,13.40
2019-01-05T07:03:48.931Z,18.70
2019-01-05T07:04:48.931Z,23.10
2019-01-05T07:05:48.904Z,18.20
2019-01-05T07:06:48.972Z,18.60
2019-01-05T07:07:49.017Z,16.60
2019-01-05T07:08:48.870Z,16.70
2019-01-05T07:09:48.863Z,18.00
2019-01-05T07:10:48.853Z,17.00
2019-01-05T07:11:48.838Z,13.40
2019-01-05T07:12:48.869Z,17.00
2019-01-05T07:13:48.818Z,22.60
2019-01-05T07:14:48.804Z,17.30
2019-01-05T07:15:48.798Z,13.30
2019-01-05T07:16:48.784Z,18.80
2019-01-05T07:17:48.790Z,16.50
2019-01-05T07:18:48.783Z,16.80
2019-01-05T07:19:48.818Z,24.70
2019-01-05T07:20:48.779Z,20.40
2019-01-05T07:21:48.737Z,18.80
2019-01-05T07:22:48.848Z,17.00
2019-01-05T07:23:48.764Z,16.30
2019-01-05T07:24:48.710Z,16.10
2019-01-05T07:25:48.738Z,12.30
2019-01-05T07:26:48.744Z,19.20
2019-01-05T07:27:48.795Z,18.80
2019-01-05T07:28:48.723Z,20.60
2019-01-05T07:29:48.678Z,18.70
2019-01-05T07:30:48.657Z,12.00
2019-01-05T07:31:48.629Z,17.80
2019-01-05T07:32:48.632Z,16.30
2019-01-05T07:33:48.601Z,13.80
2019-01-05T07:34:48.596Z,12.30
2019-01-05T07:35:48.639Z,20.20
2019-01-05T07:36:48.575Z,14.00
2019-01-05T07:37:48.587Z,13.50
2019-01-05T07:38:48.550Z,14.40
2019-01-05T07:39:48.536Z,14.20
2019-01-05T07:40:48.525Z,11.40
2019-01-05T07:41:48.558Z,14.00
2019-01-05T07:42:48.527Z,14.30
2019-01-05T07:43:48.494Z,12.90
2019-01-05T07:44:48.488Z,10.80
2019-01-05T07:45:48.480Z,12.90
2019-01-05T07:46:48.463Z,12.30
2019-01-05T07:47:48.500Z,14.50
2019-01-05T07:48:48.449Z,10.90
2019-01-05T07:49:48.429Z,14.40
2019-01-05T07:50:48.424Z,13.70
2019-01-05T07:51:48.407Z,11.60
2019-01-05T07:52:48.413Z,11.90
2019-01-05T07:53:48.397Z,16.50
2019-01-05T07:54:48.386Z,16.80
2019-01-05T07:55:48.389Z,8.00
2019-01-05T07:56:48.377Z,9.00
2019-01-05T07:57:48.369Z,10.40
2019-01-05T07:58:48.341Z,13.40
2019-01-05T07:59:48.330Z,11.00
2019-01-05T08:00:48.323Z,9.90
2019-01-05T08:01:48.303Z,8.80
2019-01-05T08:02:48.324Z,10.10
2019-01-05T08:03:48.319Z,12.50
2019-01-05T08:04:48.283Z,10.10
2019-01-05T08:05:48.282Z,12.20
2019-01-05T08:06:48.247Z,13.90
2019-01-05T08:07:48.255Z,14.30
2019-01-05T08:08:48.239Z,9.20
2019-01-05T08:09:48.223Z,10.20
2019-01-05T08:10:48.219Z,11.30
2019-01-05T08:11:48.250Z,16.20
2019-01-05T08:12:48.202Z,14.10
2019-01-05T08:13:48.190Z,10.10
2019-01-05T08:14:48.173Z,14.20
2019-01-05T08:15:48.167Z,12.50
2019-01-05T08:16:48.144Z,13.40
2019-01-05T08:17:48.131Z,10.70
2019-01-05T08:18:48.144Z,11.50
2019-01-05T08:19:48.132Z,12.40
2019-01-05T08:20:48.101Z,10.30
2019-01-05T08:21:48.085Z,11.50
2019-01-05T08:22:48.078Z,10.70
2019-01-05T08:23:48.108Z,10.40
2019-01-05T08:24:48.057Z,8.70
2019-01-05T08:25:48.068Z,11.80
2019-01-05T08:26:48.067Z,8.90
2019-01-05T08:27:48.031Z,9.70
2019-01-05T08:28:48.011Z,9.20
2019-01-05T08:29:48.140Z,8.80
2019-01-05T08:30:48.011Z,8.10
2019-01-05T08:31:48.039Z,9.50
2019-01-05T08:32:48.002Z,7.70
2019-01-05T08:33:47.994Z,9.40
2019-01-05T08:34:47.969Z,6.60
2019-01-05T08:35:48.055Z,8.30
2019-01-05T08:36:47.941Z,7.50
2019-01-05T08:37:47.979Z,8.40
2019-01-05T08:38:47.952Z,9.50
2019-01-05T08:39:47.893Z,8.20
2019-01-05T08:40:47.884Z,6.50
2019-01-05T08:41:47.883Z,9.60
2019-01-05T08:42:47.975Z,9.80
2019-01-05T08:43:47.888Z,8.30
2019-01-05T08:44:47.847Z,6.70
2019-01-05T08:45:47.838Z,6.50
2019-01-05T08:46:47.855Z,6.80
2019-01-05T08:47:47.812Z,7.10
2019-01-05T08:48:47.830Z,9.70
2019-01-05T08:49:47.816Z,7.80
2019-01-05T08:50:47.861Z,8.90
2019-01-05T08:51:47.762Z,7.80
2019-01-05T08:52:47.765Z,7.70
2019-01-05T08:53:47.758Z,9.10
2019-01-05T08:54:47.734Z,9.20
2019-01-05T08:55:47.757Z,8.40
2019-01-05T08:56:47.725Z,14.60
2019-01-05T08:57:47.745Z,13.20
2019-01-05T08:58:47.757Z,10.60
2019-01-05T08:59:47.694Z,12.30
2019-01-05T09:00:47.667Z,12.60
2019-01-05T09:01:47.688Z,10.60
2019-01-05T09:02:47.676Z,9.90
2019-01-05T09:03:47.650Z,8.80
2019-01-05T09:04:47.692Z,8.70
2019-01-05T09:05:47.612Z,10.50
2019-01-05T09:06:47.639Z,12.50
2019-01-05T09:07:47.617Z,12.70
2019-01-05T09:08:47.586Z,9.30
2019-01-05T09:09:47.593Z,13.40
2019-01-05T09:10:47.568Z,10.50
2019-01-05T09:11:47.550Z,14.40
2019-01-05T09:12:47.541Z,8.40
2019-01-05T09:13:47.569Z,13.40
2019-01-05T09:14:47.536Z,10.80
2019-01-05T09:15:47.516Z,11.10
2019-01-05T09:16:47.508Z,10.80
2019-01-05T09:17:47.483Z,10.70
2019-01-05T09:18:47.478Z,15.60
2019-01-05T09:19:48.362Z,17.30
2019-01-05T09:20:47.470Z,14.20
2019-01-05T09:21:47.453Z,13.70
2019-01-05T09:22:47.442Z,11.50
2019-01-05T09:23:47.422Z,13.20
2019-01-05T09:24:47.513Z,10.50
2019-01-05T09:25:47.465Z,9.50
2019-01-05T09:26:47.388Z,9.80
2019-01-05T09:27:47.386Z,11.90
2019-01-05T09:28:47.363Z,8.80
2019-01-05T09:29:47.388Z,10.20
2019-01-05T09:30:47.341Z,10.30
2019-01-05T09:31:47.352Z,9.80
2019-01-05T09:32:47.352Z,8.60
2019-01-05T09:33:47.368Z,9.80
2019-01-05T09:34:47.304Z,10.70
2019-01-05T09:35:47.331Z,10.70
2019-01-05T09:36:47.291Z,8.90
2019-01-05T09:37:47.328Z,12.10
2019-01-05T09:38:47.262Z,13.60
2019-01-05T09:39:47.246Z,9.60
2019-01-05T09:40:47.235Z,10.30
2019-01-05T09:41:47.244Z,10.80
2019-01-05T09:42:47.219Z,9.40
2019-01-05T09:43:47.233Z,11.20
2019-01-05T09:44:47.237Z,16.20
2019-01-05T09:45:47.182Z,8.80
2019-01-05T09:46:47.184Z,12.20
2019-01-05T09:47:47.167Z,10.40
2019-01-05T09:48:47.156Z,12.50
2019-01-05T09:49:47.174Z,10.20
2019-01-05T09:50:47.136Z,10.00
2019-01-05T09:51:47.149Z,6.70
2019-01-05T09:52:47.111Z,8.30
2019-01-05T09:53:47.101Z,8.00
2019-01-05T09:54:47.083Z,6.30
2019-01-05T09:55:47.126Z,6.70
2019-01-05T09:56:47.088Z,9.00
2019-01-05T09:57:47.056Z,6.40
2019-01-05T09:58:47.117Z,5.50
2019-01-05T09:59:47.034Z,7.50
2019-01-05T10:00:47.043Z,8.40
2019-01-05T10:01:47.324Z,7.40
2019-01-05T10:02:47.003Z,10.40
2019-01-05T10:03:46.993Z,7.00
2019-01-05T10:04:46.986Z,8.90
2019-01-05T10:05:46.964Z,8.70
2019-01-05T10:06:46.994Z,6.50
2019-01-05T10:07:46.975Z,8.20
2019-01-05T10:08:47.004Z,7.10
2019-01-05T10:09:46.942Z,8.00
2019-01-05T10:10:46.914Z,6.70
2019-01-05T10:11:46.917Z,7.10
2019-01-05T10:12:46.895Z,8.00
2019-01-05T10:13:46.961Z,10.60
2019-01-05T10:14:46.875Z,7.70
2019-01-05T10:15:46.861Z,8.70
2019-01-05T10:16:46.863Z,10.00
2019-01-05T10:17:46.841Z,7.00
2019-01-05T10:18:46.843Z,6.80
2019-01-05T10:19:46.815Z,6.70
2019-01-05T10:20:46.821Z,8.40
2019-01-05T10:21:46.818Z,7.50
2019-01-05T10:22:46.789Z,11.60
2019-01-05T10:23:46.796Z,7.90
2019-01-05T10:24:46.788Z,11.50
2019-01-05T10:25:46.759Z,7.70
2019-01-05T10:26:46.740Z,5.40
2019-01-05T10:27:46.760Z,6.10
2019-01-05T10:28:46.747Z,5.30
2019-01-05T10:29:46.723Z,7.50
2019-01-05T10:30:46.698Z,6.90
2019-01-05T10:31:46.698Z,10.20
2019-01-05T10:32:46.718Z,6.70
2019-01-05T10:33:46.676Z,6.50
2019-01-05T10:34:46.676Z,5.40
2019-01-05T10:35:46.644Z,9.60
2019-01-05T10:36:46.633Z,6.50
2019-01-05T10:37:46.622Z,9.90
2019-01-05T10:38:46.645Z,10.50
2019-01-05T10:39:46.602Z,7.60
2019-01-05T10:40:46.617Z,8.70
2019-01-05T10:41:46.582Z,9.40
2019-01-05T10:42:46.571Z,7.90
2019-01-05T10:43:46.571Z,8.80
2019-01-05T10:44:46.576Z,10.60
2019-01-05T10:45:46.555Z,11.40
2019-01-05T10:46:46.552Z,8.60
2019-01-05T10:47:46.524Z,10.10
2019-01-05T10:48:46.509Z,8.90
2019-01-05T10:49:46.569Z,7.90
2019-01-05T10:50:46.485Z,6.70
2019-01-05T10:51:46.477Z,9.70
2019-01-05T10:52:46.479Z,7.50
2019-01-05T10:53:46.482Z,6.20
2019-01-05T10:54:46.450Z,9.20
2019-01-05T10:55:46.435Z,8.00
2019-01-05T10:56:46.444Z,6.10
2019-01-05T10:57:46.407Z,8.50
2019-01-05T10:58:46.416Z,8.60
2019-01-05T10:59:46.393Z,8.30
2019-01-05T11:00:46.396Z,10.60
2019-01-05T11:01:46.366Z,8.50
2019-01-05T11:02:46.403Z,7.80
2019-01-05T11:03:46.342Z,7.80
2019-01-05T11:04:46.395Z,9.70
2019-01-05T11:05:46.324Z,10.10
2019-01-05T11:06:46.323Z,7.50
2019-01-05T11:07:46.347Z,7.70
2019-01-05T11:08:46.317Z,5.90
2019-01-05T11:09:46.280Z,9.30
2019-01-05T11:10:46.301Z,6.40
2019-01-05T11:11:46.275Z,8.60
2019-01-05T11:12:46.259Z,11.40
2019-01-05T11:13:46.267Z,6.70
2019-01-05T11:14:46.229Z,6.90
2019-01-05T11:15:46.219Z,6.90
2019-01-05T11:16:46.221Z,11.30
2019-01-05T11:17:46.224Z,6.70
2019-01-05T11:18:46.214Z,6.70
2019-01-05T11:19:46.176Z,5.80
2019-01-05T11:20:46.241Z,7.40
2019-01-05T11:21:46.150Z,5.60
2019-01-05T11:22:46.163Z,6.90
2019-01-05T11:23:46.165Z,6.90
2019-01-05T11:24:46.128Z,6.30
2019-01-05T11:25:46.111Z,6.70
2019-01-05T11:26:46.107Z,5.30
2019-01-05T11:27:46.089Z,6.10
2019-01-05T11:28:46.119Z,8.80
2019-01-05T11:29:46.065Z,3.60
2019-01-05T11:30:46.081Z,5.10
2019-01-05T11:31:46.045Z,4.50
2019-01-05T11:32:46.059Z,3.00
2019-01-05T11:33:46.055Z,5.40
2019-01-05T11:34:46.058Z,5.30
2019-01-05T11:35:46.008Z,4.30
2019-01-05T11:36:46.012Z,5.10
2019-01-05T11:37:45.989Z,7.60
2019-01-05T11:38:45.982Z,5.40
2019-01-05T11:39:45.958Z,4.40
2019-01-05T11:40:45.963Z,6.00
2019-01-05T11:41:45.987Z,5.20
2019-01-05T11:42:45.938Z,7.10
2019-01-05T11:43:45.925Z,6.60
2019-01-05T11:44:45.922Z,9.20
2019-01-05T11:45:45.910Z,6.20
2019-01-05T11:46:45.921Z,7.70
2019-01-05T11:47:45.875Z,4.10
2019-01-05T11:48:45.929Z,6.50
2019-01-05T11:49:45.858Z,6.70
2019-01-05T11:50:45.843Z,6.50
2019-01-05T11:51:45.876Z,5.10
2019-01-05T11:52:45.859Z,8.30
2019-01-05T11:53:45.820Z,6.80
2019-01-05T11:54:45.824Z,7.20
2019-01-05T11:55:45.788Z,9.10
2019-01-05T11:56:45.845Z,8.50
2019-01-05T11:57:45.785Z,7.40
2019-01-05T11:58:45.791Z,8.00
2019-01-05T11:59:45.740Z,8.20
2019-01-05T12:00:45.789Z,6.40
2019-01-05T12:01:45.737Z,7.70
2019-01-05T12:02:45.713Z,7.20
2019-01-05T12:03:45.766Z,8.00
2019-01-05T12:04:45.742Z,8.00
2019-01-05T12:05:45.719Z,7.90
2019-01-05T12:06:45.722Z,6.20
2019-01-05T12:07:45.659Z,4.60
2019-01-05T12:08:45.661Z,5.00
2019-01-05T12:09:45.639Z,5.70
2019-01-05T12:10:45.658Z,8.00
2019-01-05T12:11:46.562Z,7.60
2019-01-05T12:12:45.709Z,7.40
2019-01-05T12:13:45.640Z,6.70
2019-01-05T12:14:45.587Z,7.40
2019-01-05T12:15:45.571Z,7.70
2019-01-05T12:16:45.574Z,6.30
2019-01-05T12:17:45.555Z,7.00
2019-01-05T12:18:45.538Z,5.80
2019-01-05T12:19:45.558Z,7.70
2019-01-05T12:20:45.526Z,7.60
2019-01-05T12:21:45.520Z,7.20
2019-01-05T12:22:45.524Z,6.10
2019-01-05T12:23:46.466Z,9.50
2019-01-05T12:24:45.646Z,8.40
2019-01-05T12:25:45.461Z,8.90
2019-01-05T12:26:45.467Z,5.80
2019-01-05T12:27:45.460Z,8.50
2019-01-05T12:28:45.468Z,6.70
2019-01-05T12:29:45.419Z,5.80
2019-01-05T12:30:45.429Z,17.10
2019-01-05T12:31:45.399Z,8.70
2019-01-05T12:32:45.395Z,7.10
2019-01-05T12:33:45.378Z,8.70
2019-01-05T12:34:45.387Z,7.20
2019-01-05T12:35:45.367Z,10.20
2019-01-05T12:36:45.347Z,10.30
2019-01-05T12:37:45.357Z,7.90
2019-01-05T12:38:45.334Z,8.60
2019-01-05T12:39:45.357Z,7.10
2019-01-05T12:40:45.341Z,7.80
2019-01-05T12:41:45.303Z,8.50
2019-01-05T12:42:45.296Z,11.00
2019-01-05T12:43:45.302Z,8.80
2019-01-05T12:44:45.262Z,11.20
2019-01-05T12:45:45.258Z,10.90
2019-01-05T12:46:47.385Z,21.80
2019-01-05T12:47:45.246Z,12.90
2019-01-05T12:48:45.221Z,9.60
2019-01-05T12:49:45.217Z,8.60
2019-01-05T12:50:45.220Z,10.60
2019-01-05T12:51:45.197Z,7.90
2019-01-05T12:52:45.192Z,8.40
2019-01-05T12:53:45.175Z,6.40
2019-01-05T12:54:45.181Z,7.10
2019-01-05T12:55:45.146Z,8.80